sensor_id;sensor_type;location;lat;lon;timestamp;P1;durP1;ratioP1;P2;durP2;ratioP2
7807;SDS011;3949;49.254;8.894;2023-11-21T00:01:19;5.70;;;1.53;;
7807;SDS011;3949;49.254;8.894;2023-11-21T00:03:45;2.33;;;1.50;;
7807;SDS011;3949;49.254;8.894;2023-11-21T00:06:11;4.13;;;1.60;;
7807;SDS011;3949;49.254;8.894;2023-11-21T00:08:37;3.37;;;1.57;;
7807;SDS011;3949;49.254;8.894;2023-11-21T00:11:03;3.80;;;1.70;;
7807;SDS011;3949;49.254;8.894;2023-11-21T00:13:31;5.77;;;1.47;;
7807;SDS011;3949;49.254;8.894;2023-11-21T00:15:57;3.00;;;1.47;;
7807;SDS011;3949;49.254;8.894;2023-11-21T00:18:22;4.47;;;1.80;;
7807;SDS011;3949;49.254;8.894;2023-11-21T00:20:48;2.20;;;1.23;;
7807;SDS011;3949;49.254;8.894;2023-11-21T00:23:14;3.17;;;1.40;;
7807;SDS011;3949;49.254;8.894;2023-11-21T00:25:40;4.20;;;1.57;;
7807;SDS011;3949;49.254;8.894;2023-11-21T00:28:06;5.10;;;1.70;;
7807;SDS011;3949;49.254;8.894;2023-11-21T00:30:32;3.77;;;1.10;;
7807;SDS011;3949;49.254;8.894;2023-11-21T00:32:58;2.90;;;1.30;;
7807;SDS011;3949;49.254;8.894;2023-11-21T00:35:24;4.03;;;1.67;;
7807;SDS011;3949;49.254;8.894;2023-11-21T00:37:50;4.70;;;1.50;;
7807;SDS011;3949;49.254;8.894;2023-11-21T00:40:17;3.33;;;1.30;;
7807;SDS011;3949;49.254;8.894;2023-11-21T00:42:47;4.97;;;1.73;;
7807;SDS011;3949;49.254;8.894;2023-11-21T00:45:13;1.40;;;1.27;;
7807;SDS011;3949;49.254;8.894;2023-11-21T00:47:39;4.63;;;1.40;;
7807;SDS011;3949;49.254;8.894;2023-11-21T00:50:05;2.13;;;1.17;;
7807;SDS011;3949;49.254;8.894;2023-11-21T00:52:31;3.67;;;1.50;;
7807;SDS011;3949;49.254;8.894;2023-11-21T00:54:57;3.00;;;1.60;;
7807;SDS011;3949;49.254;8.894;2023-11-21T00:57:28;1.50;;;1.00;;
7807;SDS011;3949;49.254;8.894;2023-11-21T00:59:54;3.33;;;1.33;;
7807;SDS011;3949;49.254;8.894;2023-11-21T01:02:20;4.03;;;1.50;;
7807;SDS011;3949;49.254;8.894;2023-11-21T01:04:46;4.50;;;1.17;;
7807;SDS011;3949;49.254;8.894;2023-11-21T01:07:12;3.20;;;1.30;;
7807;SDS011;3949;49.254;8.894;2023-11-21T01:09:39;4.93;;;1.20;;
7807;SDS011;3949;49.254;8.894;2023-11-21T01:12:05;6.20;;;1.30;;
7807;SDS011;3949;49.254;8.894;2023-11-21T01:14:31;1.67;;;1.20;;
7807;SDS011;3949;49.254;8.894;2023-11-21T01:16:57;1.30;;;1.20;;
7807;SDS011;3949;49.254;8.894;2023-11-21T01:19:23;3.37;;;1.33;;
7807;SDS011;3949;49.254;8.894;2023-11-21T01:21:49;3.73;;;1.47;;
7807;SDS011;3949;49.254;8.894;2023-11-21T01:24:17;3.33;;;1.40;;
7807;SDS011;3949;49.254;8.894;2023-11-21T01:26:43;2.27;;;1.33;;
7807;SDS011;3949;49.254;8.894;2023-11-21T01:29:11;3.63;;;1.17;;
7807;SDS011;3949;49.254;8.894;2023-11-21T01:31:37;1.67;;;1.13;;
7807;SDS011;3949;49.254;8.894;2023-11-21T01:34:03;3.20;;;1.20;;
7807;SDS011;3949;49.254;8.894;2023-11-21T01:36:30;3.33;;;1.20;;
7807;SDS011;3949;49.254;8.894;2023-11-21T01:38:57;4.53;;;1.53;;
7807;SDS011;3949;49.254;8.894;2023-11-21T01:41:24;2.83;;;1.13;;
7807;SDS011;3949;49.254;8.894;2023-11-21T01:43:51;2.90;;;1.40;;
7807;SDS011;3949;49.254;8.894;2023-11-21T01:46:18;4.30;;;1.60;;
7807;SDS011;3949;49.254;8.894;2023-11-21T01:48:45;3.27;;;1.10;;
7807;SDS011;3949;49.254;8.894;2023-11-21T01:51:11;1.97;;;1.30;;
7807;SDS011;3949;49.254;8.894;2023-11-21T01:53:37;2.40;;;1.10;;
7807;SDS011;3949;49.254;8.894;2023-11-21T01:56:03;3.17;;;1.50;;
7807;SDS011;3949;49.254;8.894;2023-11-21T01:58:30;3.00;;;1.43;;
7807;SDS011;3949;49.254;8.894;2023-11-21T02:00:57;3.37;;;1.30;;
7807;SDS011;3949;49.254;8.894;2023-11-21T02:03:23;5.50;;;1.80;;
7807;SDS011;3949;49.254;8.894;2023-11-21T02:05:49;2.77;;;1.50;;
7807;SDS011;3949;49.254;8.894;2023-11-21T02:08:15;2.27;;;1.37;;
7807;SDS011;3949;49.254;8.894;2023-11-21T02:10:41;3.13;;;1.43;;
7807;SDS011;3949;49.254;8.894;2023-11-21T02:13:07;2.07;;;1.40;;
7807;SDS011;3949;49.254;8.894;2023-11-21T02:15:33;5.37;;;1.50;;
7807;SDS011;3949;49.254;8.894;2023-11-21T02:17:59;3.60;;;1.60;;
7807;SDS011;3949;49.254;8.894;2023-11-21T02:20:25;1.53;;;1.00;;
7807;SDS011;3949;49.254;8.894;2023-11-21T02:22:54;2.40;;;1.10;;
7807;SDS011;3949;49.254;8.894;2023-11-21T02:25:26;3.83;;;1.60;;
7807;SDS011;3949;49.254;8.894;2023-11-21T02:27:55;4.47;;;1.33;;
7807;SDS011;3949;49.254;8.894;2023-11-21T02:30:22;2.10;;;1.60;;
7807;SDS011;3949;49.254;8.894;2023-11-21T02:32:50;2.47;;;1.20;;
7807;SDS011;3949;49.254;8.894;2023-11-21T02:35:18;4.40;;;1.43;;
7807;SDS011;3949;49.254;8.894;2023-11-21T02:37:46;2.70;;;1.50;;
7807;SDS011;3949;49.254;8.894;2023-11-21T02:40:12;2.70;;;1.27;;
7807;SDS011;3949;49.254;8.894;2023-11-21T02:42:38;1.70;;;1.27;;
7807;SDS011;3949;49.254;8.894;2023-11-21T02:45:06;3.03;;;1.30;;
7807;SDS011;3949;49.254;8.894;2023-11-21T02:47:32;5.57;;;1.53;;
7807;SDS011;3949;49.254;8.894;2023-11-21T02:49:58;4.40;;;1.87;;
7807;SDS011;3949;49.254;8.894;2023-11-21T02:52:24;2.80;;;1.23;;
7807;SDS011;3949;49.254;8.894;2023-11-21T02:54:50;2.17;;;1.33;;
7807;SDS011;3949;49.254;8.894;2023-11-21T02:57:16;3.70;;;1.50;;
7807;SDS011;3949;49.254;8.894;2023-11-21T02:59:43;2.07;;;1.33;;
7807;SDS011;3949;49.254;8.894;2023-11-21T03:02:09;1.10;;;1.00;;
7807;SDS011;3949;49.254;8.894;2023-11-21T03:04:35;1.67;;;1.30;;
7807;SDS011;3949;49.254;8.894;2023-11-21T03:07:01;2.70;;;1.50;;
7807;SDS011;3949;49.254;8.894;2023-11-21T03:09:28;3.30;;;1.40;;
7807;SDS011;3949;49.254;8.894;2023-11-21T03:11:54;2.53;;;1.10;;
7807;SDS011;3949;49.254;8.894;2023-11-21T03:14:20;1.53;;;1.40;;
7807;SDS011;3949;49.254;8.894;2023-11-21T03:16:47;3.23;;;1.40;;
7807;SDS011;3949;49.254;8.894;2023-11-21T03:19:14;3.80;;;1.27;;
7807;SDS011;3949;49.254;8.894;2023-11-21T03:21:40;3.63;;;1.43;;
7807;SDS011;3949;49.254;8.894;2023-11-21T03:24:06;1.03;;;0.97;;
7807;SDS011;3949;49.254;8.894;2023-11-21T03:26:32;1.80;;;1.23;;
7807;SDS011;3949;49.254;8.894;2023-11-21T03:28:58;3.27;;;1.60;;
7807;SDS011;3949;49.254;8.894;2023-11-21T03:31:24;2.63;;;1.20;;
7807;SDS011;3949;49.254;8.894;2023-11-21T03:33:51;2.63;;;1.33;;
7807;SDS011;3949;49.254;8.894;2023-11-21T03:36:19;1.97;;;1.33;;
7807;SDS011;3949;49.254;8.894;2023-11-21T03:38:45;3.30;;;2.10;;
7807;SDS011;3949;49.254;8.894;2023-11-21T03:41:11;2.77;;;2.33;;
7807;SDS011;3949;49.254;8.894;2023-11-21T03:43:37;1.73;;;1.40;;
7807;SDS011;3949;49.254;8.894;2023-11-21T03:46:03;2.83;;;1.90;;
7807;SDS011;3949;49.254;8.894;2023-11-21T03:48:29;2.53;;;1.43;;
7807;SDS011;3949;49.254;8.894;2023-11-21T03:50:55;9.10;;;5.97;;
7807;SDS011;3949;49.254;8.894;2023-11-21T03:53:21;7.03;;;4.53;;
7807;SDS011;3949;49.254;8.894;2023-11-21T03:55:47;2.83;;;1.70;;
7807;SDS011;3949;49.254;8.894;2023-11-21T03:58:14;2.17;;;1.50;;
7807;SDS011;3949;49.254;8.894;2023-11-21T04:00:40;3.57;;;1.40;;
7807;SDS011;3949;49.254;8.894;2023-11-21T04:03:06;2.13;;;1.40;;
7807;SDS011;3949;49.254;8.894;2023-11-21T04:05:32;1.80;;;1.40;;
7807;SDS011;3949;49.254;8.894;2023-11-21T04:07:58;1.93;;;1.20;;
7807;SDS011;3949;49.254;8.894;2023-11-21T04:10:24;2.47;;;1.43;;
7807;SDS011;3949;49.254;8.894;2023-11-21T04:12:50;1.60;;;1.40;;
7807;SDS011;3949;49.254;8.894;2023-11-21T04:15:16;3.43;;;1.53;;
7807;SDS011;3949;49.254;8.894;2023-11-21T04:17:42;3.13;;;1.60;;
7807;SDS011;3949;49.254;8.894;2023-11-21T04:20:08;3.20;;;1.43;;
7807;SDS011;3949;49.254;8.894;2023-11-21T04:22:42;1.60;;;1.27;;
7807;SDS011;3949;49.254;8.894;2023-11-21T04:25:09;4.03;;;1.60;;
7807;SDS011;3949;49.254;8.894;2023-11-21T04:27:41;3.17;;;1.70;;
7807;SDS011;3949;49.254;8.894;2023-11-21T04:30:08;2.00;;;1.53;;
7807;SDS011;3949;49.254;8.894;2023-11-21T04:32:35;3.77;;;1.47;;
7807;SDS011;3949;49.254;8.894;2023-11-21T04:35:01;3.80;;;1.90;;
7807;SDS011;3949;49.254;8.894;2023-11-21T04:37:27;3.00;;;1.80;;
7807;SDS011;3949;49.254;8.894;2023-11-21T04:39:53;4.20;;;1.83;;
7807;SDS011;3949;49.254;8.894;2023-11-21T04:42:19;3.50;;;1.63;;
7807;SDS011;3949;49.254;8.894;2023-11-21T04:44:45;3.70;;;1.90;;
7807;SDS011;3949;49.254;8.894;2023-11-21T04:47:11;2.50;;;1.80;;
7807;SDS011;3949;49.254;8.894;2023-11-21T04:49:37;4.17;;;2.00;;
7807;SDS011;3949;49.254;8.894;2023-11-21T04:52:03;2.63;;;1.90;;
7807;SDS011;3949;49.254;8.894;2023-11-21T04:54:30;4.60;;;1.90;;
7807;SDS011;3949;49.254;8.894;2023-11-21T04:56:56;4.37;;;2.17;;
7807;SDS011;3949;49.254;8.894;2023-11-21T04:59:22;2.87;;;2.10;;
7807;SDS011;3949;49.254;8.894;2023-11-21T05:01:50;1.80;;;1.70;;
7807;SDS011;3949;49.254;8.894;2023-11-21T05:04:16;3.63;;;1.80;;
7807;SDS011;3949;49.254;8.894;2023-11-21T05:06:41;3.20;;;2.00;;
7807;SDS011;3949;49.254;8.894;2023-11-21T05:09:09;3.13;;;2.33;;
7807;SDS011;3949;49.254;8.894;2023-11-21T05:11:37;3.60;;;1.70;;
7807;SDS011;3949;49.254;8.894;2023-11-21T05:14:04;2.10;;;1.90;;
7807;SDS011;3949;49.254;8.894;2023-11-21T05:16:30;1.87;;;1.70;;
7807;SDS011;3949;49.254;8.894;2023-11-21T05:18:56;3.37;;;2.30;;
7807;SDS011;3949;49.254;8.894;2023-11-21T05:21:25;3.97;;;2.10;;
7807;SDS011;3949;49.254;8.894;2023-11-21T05:23:51;2.70;;;2.20;;
7807;SDS011;3949;49.254;8.894;2023-11-21T05:26:17;5.10;;;2.43;;
7807;SDS011;3949;49.254;8.894;2023-11-21T05:28:43;3.17;;;1.97;;
7807;SDS011;3949;49.254;8.894;2023-11-21T05:31:09;3.20;;;2.50;;
7807;SDS011;3949;49.254;8.894;2023-11-21T05:33:35;1.97;;;1.87;;
7807;SDS011;3949;49.254;8.894;2023-11-21T05:36:02;6.30;;;3.73;;
7807;SDS011;3949;49.254;8.894;2023-11-21T05:38:28;6.83;;;4.83;;
7807;SDS011;3949;49.254;8.894;2023-11-21T05:40:54;3.97;;;2.43;;
7807;SDS011;3949;49.254;8.894;2023-11-21T05:43:20;3.60;;;2.00;;
7807;SDS011;3949;49.254;8.894;2023-11-21T05:45:46;6.87;;;4.03;;
7807;SDS011;3949;49.254;8.894;2023-11-21T05:48:12;7.43;;;4.80;;
7807;SDS011;3949;49.254;8.894;2023-11-21T05:50:38;2.97;;;2.20;;
7807;SDS011;3949;49.254;8.894;2023-11-21T05:53:04;3.03;;;2.07;;
7807;SDS011;3949;49.254;8.894;2023-11-21T05:55:30;2.93;;;1.90;;
7807;SDS011;3949;49.254;8.894;2023-11-21T05:57:56;2.80;;;2.20;;
7807;SDS011;3949;49.254;8.894;2023-11-21T06:00:22;2.50;;;2.03;;
7807;SDS011;3949;49.254;8.894;2023-11-21T06:02:51;3.40;;;2.20;;
7807;SDS011;3949;49.254;8.894;2023-11-21T06:05:21;2.60;;;2.17;;
7807;SDS011;3949;49.254;8.894;2023-11-21T06:07:48;2.37;;;2.17;;
7807;SDS011;3949;49.254;8.894;2023-11-21T06:10:14;2.90;;;2.57;;
7807;SDS011;3949;49.254;8.894;2023-11-21T06:12:42;3.40;;;2.47;;
7807;SDS011;3949;49.254;8.894;2023-11-21T06:15:09;3.93;;;2.30;;
7807;SDS011;3949;49.254;8.894;2023-11-21T06:17:38;2.43;;;2.20;;
7807;SDS011;3949;49.254;8.894;2023-11-21T06:20:05;4.43;;;3.00;;
7807;SDS011;3949;49.254;8.894;2023-11-21T06:22:34;4.30;;;3.03;;
7807;SDS011;3949;49.254;8.894;2023-11-21T06:25:01;4.00;;;3.07;;
7807;SDS011;3949;49.254;8.894;2023-11-21T06:27:28;6.27;;;3.70;;
7807;SDS011;3949;49.254;8.894;2023-11-21T06:29:54;4.57;;;2.90;;
7807;SDS011;3949;49.254;8.894;2023-11-21T06:32:20;3.87;;;3.47;;
7807;SDS011;3949;49.254;8.894;2023-11-21T06:34:47;3.60;;;3.30;;
7807;SDS011;3949;49.254;8.894;2023-11-21T06:37:14;6.80;;;3.67;;
7807;SDS011;3949;49.254;8.894;2023-11-21T06:39:41;5.87;;;4.50;;
7807;SDS011;3949;49.254;8.894;2023-11-21T06:42:07;4.40;;;3.77;;
7807;SDS011;3949;49.254;8.894;2023-11-21T06:44:33;4.80;;;4.00;;
7807;SDS011;3949;49.254;8.894;2023-11-21T06:47:00;5.67;;;3.77;;
7807;SDS011;3949;49.254;8.894;2023-11-21T06:49:26;5.67;;;4.90;;
7807;SDS011;3949;49.254;8.894;2023-11-21T06:51:52;5.80;;;4.17;;
7807;SDS011;3949;49.254;8.894;2023-11-21T06:54:20;4.73;;;3.80;;
7807;SDS011;3949;49.254;8.894;2023-11-21T06:56:46;3.40;;;3.03;;
7807;SDS011;3949;49.254;8.894;2023-11-21T06:59:12;6.80;;;3.60;;
7807;SDS011;3949;49.254;8.894;2023-11-21T07:01:38;4.07;;;3.47;;
7807;SDS011;3949;49.254;8.894;2023-11-21T07:04:06;7.20;;;5.20;;
7807;SDS011;3949;49.254;8.894;2023-11-21T07:06:33;5.53;;;4.90;;
7807;SDS011;3949;49.254;8.894;2023-11-21T07:08:59;5.80;;;4.60;;
7807;SDS011;3949;49.254;8.894;2023-11-21T07:11:26;5.93;;;3.63;;
7807;SDS011;3949;49.254;8.894;2023-11-21T07:13:52;7.17;;;3.60;;
7807;SDS011;3949;49.254;8.894;2023-11-21T07:16:18;4.10;;;3.53;;
7807;SDS011;3949;49.254;8.894;2023-11-21T07:18:44;5.80;;;4.60;;
7807;SDS011;3949;49.254;8.894;2023-11-21T07:21:10;7.63;;;4.90;;
7807;SDS011;3949;49.254;8.894;2023-11-21T07:23:37;5.97;;;4.33;;
7807;SDS011;3949;49.254;8.894;2023-11-21T07:26:03;4.90;;;4.00;;
7807;SDS011;3949;49.254;8.894;2023-11-21T07:28:34;4.40;;;4.00;;
7807;SDS011;3949;49.254;8.894;2023-11-21T07:31:00;12.13;;;5.53;;
7807;SDS011;3949;49.254;8.894;2023-11-21T07:33:26;5.67;;;4.27;;
7807;SDS011;3949;49.254;8.894;2023-11-21T07:35:52;5.90;;;4.70;;
7807;SDS011;3949;49.254;8.894;2023-11-21T07:38:18;4.73;;;4.33;;
7807;SDS011;3949;49.254;8.894;2023-11-21T07:40:44;5.13;;;4.00;;
7807;SDS011;3949;49.254;8.894;2023-11-21T07:43:10;5.33;;;4.37;;
7807;SDS011;3949;49.254;8.894;2023-11-21T07:45:36;8.30;;;5.80;;
7807;SDS011;3949;49.254;8.894;2023-11-21T07:48:02;11.83;;;6.17;;
7807;SDS011;3949;49.254;8.894;2023-11-21T07:50:35;6.13;;;5.07;;
7807;SDS011;3949;49.254;8.894;2023-11-21T07:53:01;11.87;;;7.37;;
7807;SDS011;3949;49.254;8.894;2023-11-21T07:55:30;11.17;;;8.47;;
7807;SDS011;3949;49.254;8.894;2023-11-21T07:57:57;8.13;;;6.00;;
7807;SDS011;3949;49.254;8.894;2023-11-21T08:00:23;6.47;;;5.33;;
7807;SDS011;3949;49.254;8.894;2023-11-21T08:02:49;7.10;;;5.67;;
7807;SDS011;3949;49.254;8.894;2023-11-21T08:05:15;8.17;;;6.10;;
7807;SDS011;3949;49.254;8.894;2023-11-21T08:07:41;6.87;;;5.07;;
7807;SDS011;3949;49.254;8.894;2023-11-21T08:10:07;6.93;;;5.13;;
7807;SDS011;3949;49.254;8.894;2023-11-21T08:12:35;6.20;;;5.50;;
7807;SDS011;3949;49.254;8.894;2023-11-21T08:15:01;7.07;;;5.27;;
7807;SDS011;3949;49.254;8.894;2023-11-21T08:17:28;5.63;;;4.40;;
7807;SDS011;3949;49.254;8.894;2023-11-21T08:19:54;4.83;;;4.43;;
7807;SDS011;3949;49.254;8.894;2023-11-21T08:22:20;6.67;;;5.97;;
7807;SDS011;3949;49.254;8.894;2023-11-21T08:24:48;5.33;;;4.83;;
7807;SDS011;3949;49.254;8.894;2023-11-21T08:27:15;7.10;;;4.70;;
7807;SDS011;3949;49.254;8.894;2023-11-21T08:29:41;7.13;;;4.33;;
7807;SDS011;3949;49.254;8.894;2023-11-21T08:32:07;5.23;;;4.50;;
7807;SDS011;3949;49.254;8.894;2023-11-21T08:34:34;7.77;;;5.60;;
7807;SDS011;3949;49.254;8.894;2023-11-21T08:37:01;5.27;;;4.37;;
7807;SDS011;3949;49.254;8.894;2023-11-21T08:39:27;7.67;;;5.27;;
7807;SDS011;3949;49.254;8.894;2023-11-21T08:41:55;7.90;;;5.97;;
7807;SDS011;3949;49.254;8.894;2023-11-21T08:44:21;6.43;;;5.17;;
7807;SDS011;3949;49.254;8.894;2023-11-21T08:46:48;8.83;;;6.10;;
7807;SDS011;3949;49.254;8.894;2023-11-21T08:49:14;7.80;;;5.57;;
7807;SDS011;3949;49.254;8.894;2023-11-21T08:51:40;6.73;;;6.03;;
7807;SDS011;3949;49.254;8.894;2023-11-21T08:54:06;8.40;;;5.97;;
7807;SDS011;3949;49.254;8.894;2023-11-21T08:56:36;6.73;;;6.10;;
7807;SDS011;3949;49.254;8.894;2023-11-21T08:59:02;8.57;;;7.13;;
7807;SDS011;3949;49.254;8.894;2023-11-21T09:01:29;7.30;;;5.80;;
7807;SDS011;3949;49.254;8.894;2023-11-21T09:03:56;6.27;;;5.63;;
7807;SDS011;3949;49.254;8.894;2023-11-21T09:06:23;7.20;;;6.50;;
7807;SDS011;3949;49.254;8.894;2023-11-21T09:08:49;7.90;;;6.53;;
7807;SDS011;3949;49.254;8.894;2023-11-21T09:11:15;15.87;;;11.20;;
7807;SDS011;3949;49.254;8.894;2023-11-21T09:13:41;11.77;;;8.80;;
7807;SDS011;3949;49.254;8.894;2023-11-21T09:16:07;10.37;;;7.17;;
7807;SDS011;3949;49.254;8.894;2023-11-21T09:18:33;9.53;;;7.93;;
7807;SDS011;3949;49.254;8.894;2023-11-21T09:20:59;22.87;;;15.67;;
7807;SDS011;3949;49.254;8.894;2023-11-21T09:23:25;6.93;;;6.17;;
7807;SDS011;3949;49.254;8.894;2023-11-21T09:25:51;6.97;;;6.27;;
7807;SDS011;3949;49.254;8.894;2023-11-21T09:28:21;10.13;;;7.57;;
7807;SDS011;3949;49.254;8.894;2023-11-21T09:30:47;7.57;;;6.20;;
7807;SDS011;3949;49.254;8.894;2023-11-21T09:33:15;6.57;;;5.97;;
7807;SDS011;3949;49.254;8.894;2023-11-21T09:35:41;6.37;;;5.77;;
7807;SDS011;3949;49.254;8.894;2023-11-21T09:38:09;6.60;;;5.90;;
7807;SDS011;3949;49.254;8.894;2023-11-21T09:40:35;6.07;;;5.57;;
7807;SDS011;3949;49.254;8.894;2023-11-21T09:43:09;5.83;;;5.23;;
7807;SDS011;3949;49.254;8.894;2023-11-21T09:45:41;7.40;;;6.07;;
7807;SDS011;3949;49.254;8.894;2023-11-21T09:48:10;5.50;;;5.00;;
7807;SDS011;3949;49.254;8.894;2023-11-21T09:50:36;6.10;;;5.50;;
7807;SDS011;3949;49.254;8.894;2023-11-21T09:53:19;5.90;;;5.40;;
7807;SDS011;3949;49.254;8.894;2023-11-21T09:55:52;5.50;;;4.63;;
7807;SDS011;3949;49.254;8.894;2023-11-21T09:58:19;5.57;;;5.07;;
7807;SDS011;3949;49.254;8.894;2023-11-21T10:00:48;5.83;;;5.03;;
7807;SDS011;3949;49.254;8.894;2023-11-21T10:03:14;5.37;;;4.87;;
7807;SDS011;3949;49.254;8.894;2023-11-21T10:05:42;5.50;;;3.90;;
7807;SDS011;3949;49.254;8.894;2023-11-21T10:08:08;5.77;;;4.97;;
7807;SDS011;3949;49.254;8.894;2023-11-21T10:10:35;18.90;;;13.23;;
7807;SDS011;3949;49.254;8.894;2023-11-21T10:13:02;4.70;;;4.30;;
7807;SDS011;3949;49.254;8.894;2023-11-21T10:15:31;7.47;;;6.53;;
7807;SDS011;3949;49.254;8.894;2023-11-21T10:17:59;4.40;;;4.03;;
7807;SDS011;3949;49.254;8.894;2023-11-21T10:20:27;4.60;;;4.20;;
7807;SDS011;3949;49.254;8.894;2023-11-21T10:22:54;3.50;;;3.20;;
7807;SDS011;3949;49.254;8.894;2023-11-21T10:25:21;1.47;;;1.37;;
7807;SDS011;3949;49.254;8.894;2023-11-21T10:27:48;1.47;;;1.20;;
7807;SDS011;3949;49.254;8.894;2023-11-21T10:30:17;1.57;;;0.90;;
7807;SDS011;3949;49.254;8.894;2023-11-21T10:32:43;3.67;;;2.90;;
7807;SDS011;3949;49.254;8.894;2023-11-21T10:35:10;1.33;;;0.80;;
7807;SDS011;3949;49.254;8.894;2023-11-21T10:37:37;0.60;;;0.60;;
7807;SDS011;3949;49.254;8.894;2023-11-21T10:40:06;0.53;;;0.53;;
7807;SDS011;3949;49.254;8.894;2023-11-21T10:42:33;2.73;;;0.90;;
7807;SDS011;3949;49.254;8.894;2023-11-21T10:44:59;1.10;;;1.00;;
7807;SDS011;3949;49.254;8.894;2023-11-21T10:47:25;0.60;;;0.60;;
7807;SDS011;3949;49.254;8.894;2023-11-21T10:49:52;0.60;;;0.30;;
7807;SDS011;3949;49.254;8.894;2023-11-21T10:52:19;0.77;;;0.77;;
7807;SDS011;3949;49.254;8.894;2023-11-21T10:54:45;0.90;;;0.90;;
7807;SDS011;3949;49.254;8.894;2023-11-21T10:57:11;4.53;;;2.47;;
7807;SDS011;3949;49.254;8.894;2023-11-21T10:59:40;1.93;;;1.53;;
7807;SDS011;3949;49.254;8.894;2023-11-21T11:02:10;3.03;;;1.40;;
7807;SDS011;3949;49.254;8.894;2023-11-21T11:04:39;0.60;;;0.60;;
7807;SDS011;3949;49.254;8.894;2023-11-21T11:07:06;0.53;;;0.53;;
7807;SDS011;3949;49.254;8.894;2023-11-21T11:09:34;0.50;;;0.50;;
7807;SDS011;3949;49.254;8.894;2023-11-21T11:12:03;0.47;;;0.47;;
7807;SDS011;3949;49.254;8.894;2023-11-21T11:14:31;1.47;;;0.83;;
7807;SDS011;3949;49.254;8.894;2023-11-21T11:16:57;2.50;;;2.30;;
7807;SDS011;3949;49.254;8.894;2023-11-21T11:19:25;2.13;;;1.90;;
7807;SDS011;3949;49.254;8.894;2023-11-21T11:24:26;1.27;;;1.10;;
7807;SDS011;3949;49.254;8.894;2023-11-21T11:27:11;0.60;;;0.60;;
7807;SDS011;3949;49.254;8.894;2023-11-21T11:34:41;1.40;;;1.10;;
7807;SDS011;3949;49.254;8.894;2023-11-21T11:37:09;2.93;;;2.40;;
7807;SDS011;3949;49.254;8.894;2023-11-21T11:39:37;0.80;;;0.60;;
7807;SDS011;3949;49.254;8.894;2023-11-21T11:42:04;0.70;;;0.70;;
7807;SDS011;3949;49.254;8.894;2023-11-21T11:44:52;0.67;;;0.67;;
7807;SDS011;3949;49.254;8.894;2023-11-21T11:47:20;0.70;;;0.70;;
7807;SDS011;3949;49.254;8.894;2023-11-21T11:49:57;0.80;;;0.80;;
7807;SDS011;3949;49.254;8.894;2023-11-21T11:52:32;0.73;;;0.73;;
7807;SDS011;3949;49.254;8.894;2023-11-21T11:55:02;1.43;;;1.10;;
7807;SDS011;3949;49.254;8.894;2023-11-21T11:57:31;1.60;;;1.20;;
7807;SDS011;3949;49.254;8.894;2023-11-21T12:00:13;1.37;;;0.90;;
7807;SDS011;3949;49.254;8.894;2023-11-21T12:02:53;1.90;;;1.00;;
7807;SDS011;3949;49.254;8.894;2023-11-21T12:05:22;1.70;;;1.30;;
7807;SDS011;3949;49.254;8.894;2023-11-21T12:07:49;2.80;;;2.03;;
7807;SDS011;3949;49.254;8.894;2023-11-21T12:10:18;2.13;;;1.93;;
7807;SDS011;3949;49.254;8.894;2023-11-21T12:12:45;1.53;;;1.43;;
7807;SDS011;3949;49.254;8.894;2023-11-21T12:15:11;2.17;;;1.17;;
7807;SDS011;3949;49.254;8.894;2023-11-21T12:17:38;1.67;;;1.33;;
7807;SDS011;3949;49.254;8.894;2023-11-21T12:20:05;2.37;;;1.57;;
7807;SDS011;3949;49.254;8.894;2023-11-21T12:22:39;7.57;;;4.83;;
7807;SDS011;3949;49.254;8.894;2023-11-21T12:25:06;2.30;;;2.10;;
7807;SDS011;3949;49.254;8.894;2023-11-21T12:27:32;1.50;;;1.40;;
7807;SDS011;3949;49.254;8.894;2023-11-21T12:29:58;1.40;;;1.20;;
7807;SDS011;3949;49.254;8.894;2023-11-21T12:32:24;1.53;;;1.43;;
7807;SDS011;3949;49.254;8.894;2023-11-21T12:34:50;1.90;;;1.60;;
7807;SDS011;3949;49.254;8.894;2023-11-21T12:37:16;1.60;;;1.50;;
7807;SDS011;3949;49.254;8.894;2023-11-21T12:39:42;1.50;;;1.40;;
7807;SDS011;3949;49.254;8.894;2023-11-21T12:42:08;1.50;;;1.40;;
7807;SDS011;3949;49.254;8.894;2023-11-21T12:44:35;2.90;;;2.27;;
7807;SDS011;3949;49.254;8.894;2023-11-21T12:47:05;2.43;;;2.23;;
7807;SDS011;3949;49.254;8.894;2023-11-21T12:49:32;1.87;;;1.30;;
7807;SDS011;3949;49.254;8.894;2023-11-21T12:51:59;1.50;;;1.40;;
7807;SDS011;3949;49.254;8.894;2023-11-21T12:54:25;2.03;;;1.40;;
7807;SDS011;3949;49.254;8.894;2023-11-21T12:56:51;1.60;;;1.50;;
7807;SDS011;3949;49.254;8.894;2023-11-21T12:59:17;3.77;;;2.77;;
7807;SDS011;3949;49.254;8.894;2023-11-21T13:01:43;5.93;;;4.93;;
7807;SDS011;3949;49.254;8.894;2023-11-21T13:04:11;2.90;;;2.60;;
7807;SDS011;3949;49.254;8.894;2023-11-21T13:06:37;9.73;;;7.07;;
7807;SDS011;3949;49.254;8.894;2023-11-21T13:09:06;2.47;;;1.70;;
7807;SDS011;3949;49.254;8.894;2023-11-21T13:11:35;1.47;;;1.37;;
7807;SDS011;3949;49.254;8.894;2023-11-21T13:14:01;1.23;;;1.20;;
7807;SDS011;3949;49.254;8.894;2023-11-21T13:16:28;1.27;;;1.17;;
7807;SDS011;3949;49.254;8.894;2023-11-21T13:18:56;1.43;;;1.30;;
7807;SDS011;3949;49.254;8.894;2023-11-21T13:21:23;2.77;;;1.40;;
7807;SDS011;3949;49.254;8.894;2023-11-21T13:23:49;1.20;;;1.13;;
7807;SDS011;3949;49.254;8.894;2023-11-21T13:26:17;1.40;;;1.30;;
7807;SDS011;3949;49.254;8.894;2023-11-21T13:28:45;1.63;;;1.53;;
7807;SDS011;3949;49.254;8.894;2023-11-21T13:31:12;1.37;;;1.27;;
7807;SDS011;3949;49.254;8.894;2023-11-21T13:33:51;1.67;;;1.57;;
7807;SDS011;3949;49.254;8.894;2023-11-21T13:36:24;1.60;;;1.50;;
7807;SDS011;3949;49.254;8.894;2023-11-21T13:38:50;1.30;;;1.10;;
7807;SDS011;3949;49.254;8.894;2023-11-21T13:41:19;2.03;;;1.83;;
7807;SDS011;3949;49.254;8.894;2023-11-21T13:43:52;3.40;;;1.37;;
7807;SDS011;3949;49.254;8.894;2023-11-21T13:46:28;2.00;;;1.50;;
7807;SDS011;3949;49.254;8.894;2023-11-21T13:48:56;2.20;;;2.00;;
7807;SDS011;3949;49.254;8.894;2023-11-21T13:51:22;3.87;;;2.77;;
7807;SDS011;3949;49.254;8.894;2023-11-21T13:53:59;9.03;;;5.87;;
7807;SDS011;3949;49.254;8.894;2023-11-21T13:56:25;2.57;;;1.53;;
7807;SDS011;3949;49.254;8.894;2023-11-21T13:58:53;1.60;;;1.40;;
7807;SDS011;3949;49.254;8.894;2023-11-21T14:01:21;1.00;;;1.00;;
7807;SDS011;3949;49.254;8.894;2023-11-21T14:03:57;1.10;;;1.10;;
7807;SDS011;3949;49.254;8.894;2023-11-21T14:06:27;4.30;;;1.10;;
7807;SDS011;3949;49.254;8.894;2023-11-21T14:08:59;1.20;;;1.10;;
7807;SDS011;3949;49.254;8.894;2023-11-21T14:11:30;0.63;;;0.60;;
7807;SDS011;3949;49.254;8.894;2023-11-21T14:13:56;1.20;;;1.20;;
7807;SDS011;3949;49.254;8.894;2023-11-21T14:16:24;1.23;;;1.13;;
7807;SDS011;3949;49.254;8.894;2023-11-21T14:18:50;1.53;;;1.13;;
7807;SDS011;3949;49.254;8.894;2023-11-21T14:21:26;1.37;;;0.90;;
7807;SDS011;3949;49.254;8.894;2023-11-21T14:23:52;1.57;;;1.10;;
7807;SDS011;3949;49.254;8.894;2023-11-21T14:26:21;1.50;;;1.20;;
7807;SDS011;3949;49.254;8.894;2023-11-21T14:28:49;3.57;;;2.10;;
7807;SDS011;3949;49.254;8.894;2023-11-21T14:31:16;3.03;;;2.00;;
7807;SDS011;3949;49.254;8.894;2023-11-21T14:33:43;4.93;;;2.83;;
7807;SDS011;3949;49.254;8.894;2023-11-21T14:36:10;3.83;;;2.83;;
7807;SDS011;3949;49.254;8.894;2023-11-21T14:38:36;4.07;;;2.60;;
7807;SDS011;3949;49.254;8.894;2023-11-21T14:41:04;3.00;;;2.70;;
7807;SDS011;3949;49.254;8.894;2023-11-21T14:43:33;5.83;;;4.87;;
7807;SDS011;3949;49.254;8.894;2023-11-21T14:46:00;3.97;;;2.90;;
7807;SDS011;3949;49.254;8.894;2023-11-21T14:48:27;2.40;;;2.17;;
7807;SDS011;3949;49.254;8.894;2023-11-21T14:51:08;1.53;;;1.43;;
7807;SDS011;3949;49.254;8.894;2023-11-21T14:53:40;1.80;;;1.40;;
7807;SDS011;3949;49.254;8.894;2023-11-21T14:56:19;3.57;;;1.53;;
7807;SDS011;3949;49.254;8.894;2023-11-21T14:58:51;1.50;;;1.40;;
7807;SDS011;3949;49.254;8.894;2023-11-21T15:01:18;2.30;;;2.10;;
7807;SDS011;3949;49.254;8.894;2023-11-21T15:03:55;2.60;;;2.00;;
7807;SDS011;3949;49.254;8.894;2023-11-21T15:06:21;10.13;;;6.67;;
7807;SDS011;3949;49.254;8.894;2023-11-21T15:08:58;2.77;;;2.30;;
7807;SDS011;3949;49.254;8.894;2023-11-21T15:11:33;2.70;;;2.47;;
7807;SDS011;3949;49.254;8.894;2023-11-21T15:13:59;5.33;;;4.83;;
7807;SDS011;3949;49.254;8.894;2023-11-21T15:16:31;7.50;;;6.30;;
7807;SDS011;3949;49.254;8.894;2023-11-21T15:18:57;8.97;;;6.77;;
7807;SDS011;3949;49.254;8.894;2023-11-21T15:21:23;11.60;;;8.33;;
7807;SDS011;3949;49.254;8.894;2023-11-21T15:23:50;5.77;;;5.17;;